sensor_id;sensor_type;location;lat;lon;timestamp;temperature;humidity
14924;DHT22;7554;43.600;1.480;2023-04-16T00:01:28;10.10;1.00
14924;DHT22;7554;43.600;1.480;2023-04-16T00:03:55;10.20;1.00
14924;DHT22;7554;43.600;1.480;2023-04-16T00:06:23;10.10;1.00
14924;DHT22;7554;43.600;1.480;2023-04-16T00:08:50;10.10;1.00
14924;DHT22;7554;43.600;1.480;2023-04-16T00:11:17;10.00;1.00
14924;DHT22;7554;43.600;1.480;2023-04-16T00:13:46;9.90;1.00
14924;DHT22;7554;43.600;1.480;2023-04-16T00:16:13;9.80;1.00
14924;DHT22;7554;43.600;1.480;2023-04-16T00:18:41;9.70;1.00
14924;DHT22;7554;43.600;1.480;2023-04-16T00:21:08;9.70;1.00
14924;DHT22;7554;43.600;1.480;2023-04-16T00:23:36;9.60;1.00
14924;DHT22;7554;43.600;1.480;2023-04-16T00:26:03;9.50;1.00
14924;DHT22;7554;43.600;1.480;2023-04-16T00:28:31;9.50;1.00
14924;DHT22;7554;43.600;1.480;2023-04-16T00:31:00;9.50;1.00
14924;DHT22;7554;43.600;1.480;2023-04-16T00:33:27;9.50;1.00
14924;DHT22;7554;43.600;1.480;2023-04-16T00:35:55;9.40;1.00
14924;DHT22;7554;43.600;1.480;2023-04-16T00:38:23;9.40;1.00
14924;DHT22;7554;43.600;1.480;2023-04-16T00:40:54;9.40;1.00
14924;DHT22;7554;43.600;1.480;2023-04-16T00:43:24;9.30;1.00
14924;DHT22;7554;43.600;1.480;2023-04-16T00:45:52;9.30;1.00
14924;DHT22;7554;43.600;1.480;2023-04-16T00:48:22;9.30;1.00
14924;DHT22;7554;43.600;1.480;2023-04-16T00:50:52;9.20;1.00
14924;DHT22;7554;43.600;1.480;2023-04-16T00:53:21;9.20;1.00
14924;DHT22;7554;43.600;1.480;2023-04-16T00:55:48;9.20;1.00
14924;DHT22;7554;43.600;1.480;2023-04-16T00:58:16;9.20;1.00
14924;DHT22;7554;43.600;1.480;2023-04-16T01:00:44;9.20;1.00
14924;DHT22;7554;43.600;1.480;2023-04-16T01:03:12;9.10;1.00
14924;DHT22;7554;43.600;1.480;2023-04-16T01:05:41;9.10;1.00
14924;DHT22;7554;43.600;1.480;2023-04-16T01:08:14;9.10;1.00
14924;DHT22;7554;43.600;1.480;2023-04-16T01:10:42;9.10;1.00
14924;DHT22;7554;43.600;1.480;2023-04-16T01:13:10;9.10;1.00
14924;DHT22;7554;43.600;1.480;2023-04-16T01:15:37;9.10;1.00
14924;DHT22;7554;43.600;1.480;2023-04-16T01:18:13;9.10;1.00
14924;DHT22;7554;43.600;1.480;2023-04-16T01:20:42;9.00;1.00
14924;DHT22;7554;43.600;1.480;2023-04-16T01:23:09;9.00;1.00
14924;DHT22;7554;43.600;1.480;2023-04-16T01:25:37;9.00;1.00
14924;DHT22;7554;43.600;1.480;2023-04-16T01:28:04;8.90;1.00
14924;DHT22;7554;43.600;1.480;2023-04-16T01:30:32;8.90;1.00
14924;DHT22;7554;43.600;1.480;2023-04-16T01:33:00;8.90;1.00
14924;DHT22;7554;43.600;1.480;2023-04-16T01:35:27;8.80;1.00
14924;DHT22;7554;43.600;1.480;2023-04-16T01:37:56;8.80;1.00
14924;DHT22;7554;43.600;1.480;2023-04-16T01:40:23;8.80;1.00
14924;DHT22;7554;43.600;1.480;2023-04-16T01:42:50;8.80;1.00
14924;DHT22;7554;43.600;1.480;2023-04-16T01:45:18;8.80;1.00
14924;DHT22;7554;43.600;1.480;2023-04-16T01:47:46;8.70;1.00
14924;DHT22;7554;43.600;1.480;2023-04-16T01:50:13;8.70;1.00
14924;DHT22;7554;43.600;1.480;2023-04-16T01:52:40;8.70;1.00
14924;DHT22;7554;43.600;1.480;2023-04-16T01:55:09;8.70;1.00
14924;DHT22;7554;43.600;1.480;2023-04-16T01:57:37;8.60;1.00
14924;DHT22;7554;43.600;1.480;2023-04-16T02:00:05;8.60;1.00
14924;DHT22;7554;43.600;1.480;2023-04-16T02:02:33;8.60;1.00
14924;DHT22;7554;43.600;1.480;2023-04-16T02:05:01;8.50;1.00
14924;DHT22;7554;43.600;1.480;2023-04-16T02:07:29;8.60;1.00
14924;DHT22;7554;43.600;1.480;2023-04-16T02:09:57;8.50;1.00
14924;DHT22;7554;43.600;1.480;2023-04-16T02:12:26;8.50;1.00
14924;DHT22;7554;43.600;1.480;2023-04-16T02:14:53;8.50;1.00
14924;DHT22;7554;43.600;1.480;2023-04-16T02:17:21;8.50;1.00
14924;DHT22;7554;43.600;1.480;2023-04-16T02:19:48;8.50;1.00
14924;DHT22;7554;43.600;1.480;2023-04-16T02:22:16;8.40;1.00
14924;DHT22;7554;43.600;1.480;2023-04-16T02:24:43;8.40;1.00
14924;DHT22;7554;43.600;1.480;2023-04-16T02:27:10;8.40;1.00
14924;DHT22;7554;43.600;1.480;2023-04-16T02:29:39;8.40;1.00
14924;DHT22;7554;43.600;1.480;2023-04-16T02:32:06;8.40;1.00
14924;DHT22;7554;43.600;1.480;2023-04-16T02:34:34;8.40;1.00
14924;DHT22;7554;43.600;1.480;2023-04-16T02:37:01;8.30;1.00
14924;DHT22;7554;43.600;1.480;2023-04-16T02:39:28;8.40;1.00
14924;DHT22;7554;43.600;1.480;2023-04-16T02:41:56;8.30;1.00
14924;DHT22;7554;43.600;1.480;2023-04-16T02:44:24;8.30;1.00
14924;DHT22;7554;43.600;1.480;2023-04-16T02:46:52;8.30;1.00
14924;DHT22;7554;43.600;1.480;2023-04-16T02:49:20;8.30;1.00
14924;DHT22;7554;43.600;1.480;2023-04-16T02:51:47;8.30;1.00
14924;DHT22;7554;43.600;1.480;2023-04-16T02:54:15;8.20;1.00
14924;DHT22;7554;43.600;1.480;2023-04-16T02:56:42;8.20;1.00
14924;DHT22;7554;43.600;1.480;2023-04-16T02:59:09;8.20;1.00
14924;DHT22;7554;43.600;1.480;2023-04-16T03:01:36;8.20;1.00
14924;DHT22;7554;43.600;1.480;2023-04-16T03:04:05;8.20;1.00
14924;DHT22;7554;43.600;1.480;2023-04-16T03:06:33;8.10;1.00
14924;DHT22;7554;43.600;1.480;2023-04-16T03:09:00;8.10;1.00
14924;DHT22;7554;43.600;1.480;2023-04-16T03:11:27;8.10;1.00
14924;DHT22;7554;43.600;1.480;2023-04-16T03:13:55;8.10;1.00
14924;DHT22;7554;43.600;1.480;2023-04-16T03:16:22;8.10;1.00
14924;DHT22;7554;43.600;1.480;2023-04-16T03:18:49;8.10;1.00
14924;DHT22;7554;43.600;1.480;2023-04-16T03:21:18;8.10;1.00
14924;DHT22;7554;43.600;1.480;2023-04-16T03:23:45;8.00;1.00
14924;DHT22;7554;43.600;1.480;2023-04-16T03:26:13;8.00;1.00
14924;DHT22;7554;43.600;1.480;2023-04-16T03:28:41;8.00;1.00
14924;DHT22;7554;43.600;1.480;2023-04-16T03:31:08;8.00;1.00
14924;DHT22;7554;43.600;1.480;2023-04-16T03:33:35;8.00;1.00
14924;DHT22;7554;43.600;1.480;2023-04-16T03:36:03;8.00;1.00
14924;DHT22;7554;43.600;1.480;2023-04-16T03:38:32;8.00;1.00
14924;DHT22;7554;43.600;1.480;2023-04-16T03:40:59;7.90;1.00
14924;DHT22;7554;43.600;1.480;2023-04-16T03:43:26;7.90;1.00
14924;DHT22;7554;43.600;1.480;2023-04-16T03:45:54;8.00;1.00
14924;DHT22;7554;43.600;1.480;2023-04-16T03:48:22;7.90;1.00
14924;DHT22;7554;43.600;1.480;2023-04-16T03:50:49;7.90;1.00
14924;DHT22;7554;43.600;1.480;2023-04-16T03:53:16;7.80;1.00
14924;DHT22;7554;43.600;1.480;2023-04-16T03:55:48;7.90;1.00
14924;DHT22;7554;43.600;1.480;2023-04-16T03:58:17;7.80;1.00
14924;DHT22;7554;43.600;1.480;2023-04-16T04:00:44;7.80;1.00
14924;DHT22;7554;43.600;1.480;2023-04-16T04:03:12;7.80;1.00
14924;DHT22;7554;43.600;1.480;2023-04-16T04:05:42;7.80;1.00
14924;DHT22;7554;43.600;1.480;2023-04-16T04:08:10;7.80;1.00
14924;DHT22;7554;43.600;1.480;2023-04-16T04:10:37;7.70;1.00
14924;DHT22;7554;43.600;1.480;2023-04-16T04:13:06;7.70;1.00
14924;DHT22;7554;43.600;1.480;2023-04-16T04:15:34;7.70;1.00
14924;DHT22;7554;43.600;1.480;2023-04-16T04:18:01;7.70;1.00
14924;DHT22;7554;43.600;1.480;2023-04-16T04:20:28;7.70;1.00
14924;DHT22;7554;43.600;1.480;2023-04-16T04:22:56;7.70;1.00
14924;DHT22;7554;43.600;1.480;2023-04-16T04:25:23;7.70;1.00
14924;DHT22;7554;43.600;1.480;2023-04-16T04:27:51;7.60;1.00
14924;DHT22;7554;43.600;1.480;2023-04-16T04:30:20;7.60;1.00
14924;DHT22;7554;43.600;1.480;2023-04-16T04:32:47;7.60;1.00
14924;DHT22;7554;43.600;1.480;2023-04-16T04:35:14;7.60;1.00
14924;DHT22;7554;43.600;1.480;2023-04-16T04:37:42;7.60;1.00
14924;DHT22;7554;43.600;1.480;2023-04-16T04:40:09;7.60;1.00
14924;DHT22;7554;43.600;1.480;2023-04-16T04:42:37;7.60;1.00
14924;DHT22;7554;43.600;1.480;2023-04-16T04:45:06;7.60;1.00
14924;DHT22;7554;43.600;1.480;2023-04-16T04:47:35;7.60;1.00
14924;DHT22;7554;43.600;1.480;2023-04-16T04:50:02;7.70;1.00
14924;DHT22;7554;43.600;1.480;2023-04-16T04:52:29;7.60;1.00
14924;DHT22;7554;43.600;1.480;2023-04-16T04:54:57;7.60;1.00
14924;DHT22;7554;43.600;1.480;2023-04-16T04:57:24;7.60;1.00
14924;DHT22;7554;43.600;1.480;2023-04-16T04:59:51;7.50;1.00
14924;DHT22;7554;43.600;1.480;2023-04-16T05:02:19;7.50;1.00
14924;DHT22;7554;43.600;1.480;2023-04-16T05:04:47;7.60;1.00
14924;DHT22;7554;43.600;1.480;2023-04-16T05:07:15;7.50;1.00
14924;DHT22;7554;43.600;1.480;2023-04-16T05:09:42;7.50;1.00
14924;DHT22;7554;43.600;1.480;2023-04-16T05:12:10;7.50;1.00
14924;DHT22;7554;43.600;1.480;2023-04-16T05:14:37;7.60;1.00
14924;DHT22;7554;43.600;1.480;2023-04-16T05:17:04;7.60;1.00
14924;DHT22;7554;43.600;1.480;2023-04-16T05:19:32;7.60;1.00
14924;DHT22;7554;43.600;1.480;2023-04-16T05:22:01;7.60;1.00
14924;DHT22;7554;43.600;1.480;2023-04-16T05:24:28;7.70;1.00
14924;DHT22;7554;43.600;1.480;2023-04-16T05:26:56;7.80;1.00
14924;DHT22;7554;43.600;1.480;2023-04-16T05:29:23;7.90;1.00
14924;DHT22;7554;43.600;1.480;2023-04-16T05:31:51;8.00;1.00
14924;DHT22;7554;43.600;1.480;2023-04-16T05:34:18;8.60;1.00
14924;DHT22;7554;43.600;1.480;2023-04-16T05:36:46;9.60;1.00
14924;DHT22;7554;43.600;1.480;2023-04-16T05:39:15;10.30;1.00
14924;DHT22;7554;43.600;1.480;2023-04-16T05:41:43;11.20;1.00
14924;DHT22;7554;43.600;1.480;2023-04-16T05:44:10;12.00;1.00
14924;DHT22;7554;43.600;1.480;2023-04-16T05:46:37;12.70;1.00
14924;DHT22;7554;43.600;1.480;2023-04-16T05:49:05;13.40;1.00
14924;DHT22;7554;43.600;1.480;2023-04-16T05:51:32;14.00;1.00
14924;DHT22;7554;43.600;1.480;2023-04-16T05:53:59;14.30;1.00
14924;DHT22;7554;43.600;1.480;2023-04-16T05:56:28;14.90;1.00
14924;DHT22;7554;43.600;1.480;2023-04-16T05:58:56;15.40;1.00
14924;DHT22;7554;43.600;1.480;2023-04-16T06:01:24;15.50;1.00
14924;DHT22;7554;43.600;1.480;2023-04-16T06:03:52;14.70;1.00
14924;DHT22;7554;43.600;1.480;2023-04-16T06:06:19;13.30;1.00
14924;DHT22;7554;43.600;1.480;2023-04-16T06:08:46;12.30;1.00
14924;DHT22;7554;43.600;1.480;2023-04-16T06:11:14;13.00;1.00
14924;DHT22;7554;43.600;1.480;2023-04-16T06:13:43;15.40;1.00
14924;DHT22;7554;43.600;1.480;2023-04-16T06:16:11;16.90;1.00
14924;DHT22;7554;43.600;1.480;2023-04-16T06:18:38;18.10;1.00
14924;DHT22;7554;43.600;1.480;2023-04-16T06:21:05;18.70;1.00
14924;DHT22;7554;43.600;1.480;2023-04-16T06:23:33;19.10;1.00
14924;DHT22;7554;43.600;1.480;2023-04-16T06:26:00;19.90;1.00
14924;DHT22;7554;43.600;1.480;2023-04-16T06:28:27;20.00;1.00
14924;DHT22;7554;43.600;1.480;2023-04-16T06:30:56;20.20;1.00
14924;DHT22;7554;43.600;1.480;2023-04-16T06:33:23;19.90;1.00
14924;DHT22;7554;43.600;1.480;2023-04-16T06:35:51;20.70;1.00
14924;DHT22;7554;43.600;1.480;2023-04-16T06:38:18;21.70;1.00
14924;DHT22;7554;43.600;1.480;2023-04-16T06:40:46;22.50;1.00
14924;DHT22;7554;43.600;1.480;2023-04-16T06:43:14;22.50;1.00
14924;DHT22;7554;43.600;1.480;2023-04-16T06:45:42;22.30;1.00
14924;DHT22;7554;43.600;1.480;2023-04-16T06:48:11;22.80;1.00
14924;DHT22;7554;43.600;1.480;2023-04-16T06:50:39;22.60;1.00
14924;DHT22;7554;43.600;1.480;2023-04-16T06:53:06;22.40;1.00
14924;DHT22;7554;43.600;1.480;2023-04-16T06:55:33;22.90;1.00
14924;DHT22;7554;43.600;1.480;2023-04-16T06:58:01;23.90;1.00
14924;DHT22;7554;43.600;1.480;2023-04-16T07:00:28;24.40;1.00
14924;DHT22;7554;43.600;1.480;2023-04-16T07:02:55;25.40;1.00
14924;DHT22;7554;43.600;1.480;2023-04-16T07:05:26;25.40;1.00
14924;DHT22;7554;43.600;1.480;2023-04-16T07:07:53;25.10;1.00
14924;DHT22;7554;43.600;1.480;2023-04-16T07:10:22;25.40;1.00
14924;DHT22;7554;43.600;1.480;2023-04-16T07:12:49;25.40;1.00
14924;DHT22;7554;43.600;1.480;2023-04-16T07:15:17;25.40;1.00
14924;DHT22;7554;43.600;1.480;2023-04-16T07:17:44;24.60;1.00
14924;DHT22;7554;43.600;1.480;2023-04-16T07:20:13;24.50;1.00
14924;DHT22;7554;43.600;1.480;2023-04-16T07:22:42;24.60;1.00
14924;DHT22;7554;43.600;1.480;2023-04-16T07:25:09;24.70;1.00
14924;DHT22;7554;43.600;1.480;2023-04-16T07:27:37;24.60;1.00
14924;DHT22;7554;43.600;1.480;2023-04-16T07:30:05;25.20;1.00
14924;DHT22;7554;43.600;1.480;2023-04-16T07:32:33;25.30;1.00
14924;DHT22;7554;43.600;1.480;2023-04-16T07:35:00;25.40;1.00
14924;DHT22;7554;43.600;1.480;2023-04-16T07:37:28;25.80;1.00
14924;DHT22;7554;43.600;1.480;2023-04-16T07:39:57;25.50;1.00
14924;DHT22;7554;43.600;1.480;2023-04-16T07:42:25;26.00;1.00
14924;DHT22;7554;43.600;1.480;2023-04-16T07:44:54;27.10;1.00
14924;DHT22;7554;43.600;1.480;2023-04-16T07:47:21;26.70;1.00
14924;DHT22;7554;43.600;1.480;2023-04-16T07:49:51;26.20;1.00
14924;DHT22;7554;43.600;1.480;2023-04-16T07:52:18;25.80;1.00
14924;DHT22;7554;43.600;1.480;2023-04-16T07:54:46;25.30;1.00
14924;DHT22;7554;43.600;1.480;2023-04-16T07:57:15;26.30;1.00
14924;DHT22;7554;43.600;1.480;2023-04-16T07:59:43;26.30;1.00
14924;DHT22;7554;43.600;1.480;2023-04-16T08:02:13;27.80;1.00
14924;DHT22;7554;43.600;1.480;2023-04-16T08:04:41;27.90;1.00
14924;DHT22;7554;43.600;1.480;2023-04-16T08:07:09;28.30;1.00
14924;DHT22;7554;43.600;1.480;2023-04-16T08:09:46;27.40;1.00
14924;DHT22;7554;43.600;1.480;2023-04-16T08:12:15;27.20;1.00
14924;DHT22;7554;43.600;1.480;2023-04-16T08:14:42;28.10;1.00
14924;DHT22;7554;43.600;1.480;2023-04-16T08:17:11;27.10;1.00
14924;DHT22;7554;43.600;1.480;2023-04-16T08:19:39;26.80;1.00
14924;DHT22;7554;43.600;1.480;2023-04-16T08:22:06;27.60;1.00
14924;DHT22;7554;43.600;1.480;2023-04-16T08:24:34;27.40;1.00
14924;DHT22;7554;43.600;1.480;2023-04-16T08:27:01;27.10;1.00
14924;DHT22;7554;43.600;1.480;2023-04-16T08:29:30;27.20;1.00
14924;DHT22;7554;43.600;1.480;2023-04-16T08:31:58;26.90;1.00
14924;DHT22;7554;43.600;1.480;2023-04-16T08:34:25;26.60;1.00
14924;DHT22;7554;43.600;1.480;2023-04-16T08:36:53;27.30;1.00
14924;DHT22;7554;43.600;1.480;2023-04-16T08:39:20;27.10;1.00
14924;DHT22;7554;43.600;1.480;2023-04-16T08:41:48;26.90;1.00
14924;DHT22;7554;43.600;1.480;2023-04-16T08:44:20;25.60;1.00
14924;DHT22;7554;43.600;1.480;2023-04-16T08:46:53;25.60;1.00
14924;DHT22;7554;43.600;1.480;2023-04-16T08:49:23;26.30;1.00
14924;DHT22;7554;43.600;1.480;2023-04-16T08:51:52;27.10;1.00
14924;DHT22;7554;43.600;1.480;2023-04-16T08:54:36;25.40;1.00
14924;DHT22;7554;43.600;1.480;2023-04-16T08:57:05;25.30;1.00
14924;DHT22;7554;43.600;1.480;2023-04-16T08:59:37;26.70;1.00
14924;DHT22;7554;43.600;1.480;2023-04-16T09:02:09;27.30;1.00
14924;DHT22;7554;43.600;1.480;2023-04-16T09:04:39;26.80;1.00
14924;DHT22;7554;43.600;1.480;2023-04-16T09:07:08;25.70;1.00
14924;DHT22;7554;43.600;1.480;2023-04-16T09:09:37;24.50;1.00
14924;DHT22;7554;43.600;1.480;2023-04-16T09:12:05;23.70;1.00
14924;DHT22;7554;43.600;1.480;2023-04-16T09:14:33;23.40;1.00
14924;DHT22;7554;43.600;1.480;2023-04-16T09:17:01;22.30;1.00
14924;DHT22;7554;43.600;1.480;2023-04-16T09:19:31;20.80;1.00
14924;DHT22;7554;43.600;1.480;2023-04-16T09:21:58;19.90;1.00
14924;DHT22;7554;43.600;1.480;2023-04-16T09:24:25;19.20;1.00
14924;DHT22;7554;43.600;1.480;2023-04-16T09:26:55;19.20;1.00
14924;DHT22;7554;43.600;1.480;2023-04-16T09:29:35;19.40;1.00
14924;DHT22;7554;43.600;1.480;2023-04-16T09:32:03;19.30;1.00
14924;DHT22;7554;43.600;1.480;2023-04-16T09:34:33;19.50;1.00
14924;DHT22;7554;43.600;1.480;2023-04-16T09:37:13;19.70;1.00
14924;DHT22;7554;43.600;1.480;2023-04-16T09:39:42;20.20;1.00
14924;DHT22;7554;43.600;1.480;2023-04-16T09:42:09;20.40;1.00
14924;DHT22;7554;43.600;1.480;2023-04-16T09:44:37;19.80;1.00
14924;DHT22;7554;43.600;1.480;2023-04-16T09:47:05;19.70;1.00
14924;DHT22;7554;43.600;1.480;2023-04-16T09:49:36;19.70;1.00
14924;DHT22;7554;43.600;1.480;2023-04-16T09:52:11;19.90;1.00
14924;DHT22;7554;43.600;1.480;2023-04-16T09:54:45;19.90;1.00
14924;DHT22;7554;43.600;1.480;2023-04-16T09:57:13;19.70;1.00
14924;DHT22;7554;43.600;1.480;2023-04-16T09:59:40;19.50;1.00
14924;DHT22;7554;43.600;1.480;2023-04-16T10:02:08;19.90;1.00
14924;DHT22;7554;43.600;1.480;2023-04-16T10:04:46;19.90;1.00
14924;DHT22;7554;43.600;1.480;2023-04-16T10:07:14;19.70;1.00
14924;DHT22;7554;43.600;1.480;2023-04-16T10:09:42;19.70;1.00
14924;DHT22;7554;43.600;1.480;2023-04-16T10:12:09;20.10;1.00
14924;DHT22;7554;43.600;1.480;2023-04-16T10:14:37;19.60;1.00
14924;DHT22;7554;43.600;1.480;2023-04-16T10:17:05;19.70;1.00
14924;DHT22;7554;43.600;1.480;2023-04-16T10:19:32;19.40;1.00
14924;DHT22;7554;43.600;1.480;2023-04-16T10:22:02;19.40;1.00
14924;DHT22;7554;43.600;1.480;2023-04-16T10:24:30;19.50;1.00
14924;DHT22;7554;43.600;1.480;2023-04-16T10:26:58;19.70;1.00
14924;DHT22;7554;43.600;1.480;2023-04-16T10:29:28;19.40;1.00
14924;DHT22;7554;43.600;1.480;2023-04-16T10:31:56;19.70;1.00
14924;DHT22;7554;43.600;1.480;2023-04-16T10:34:24;19.80;1.00
14924;DHT22;7554;43.600;1.480;2023-04-16T10:36:53;19.60;1.00
14924;DHT22;7554;43.600;1.480;2023-04-16T10:39:23;19.40;1.00
14924;DHT22;7554;43.600;1.480;2023-04-16T10:42:06;19.50;1.00
14924;DHT22;7554;43.600;1.480;2023-04-16T10:44:34;19.90;1.00
14924;DHT22;7554;43.600;1.480;2023-04-16T10:47:02;19.30;1.00
14924;DHT22;7554;43.600;1.480;2023-04-16T10:49:35;19.20;1.00
14924;DHT22;7554;43.600;1.480;2023-04-16T10:52:08;19.40;1.00
14924;DHT22;7554;43.600;1.480;2023-04-16T10:54:38;19.50;1.00
14924;DHT22;7554;43.600;1.480;2023-04-16T10:57:08;19.50;1.00
14924;DHT22;7554;43.600;1.480;2023-04-16T10:59:36;18.90;1.00
14924;DHT22;7554;43.600;1.480;2023-04-16T11:02:07;18.80;1.00
14924;DHT22;7554;43.600;1.480;2023-04-16T11:04:35;18.60;1.00
14924;DHT22;7554;43.600;1.480;2023-04-16T11:07:05;19.20;1.00
14924;DHT22;7554;43.600;1.480;2023-04-16T11:09:51;19.60;1.00
14924;DHT22;7554;43.600;1.480;2023-04-16T11:12:19;19.70;1.00
14924;DHT22;7554;43.600;1.480;2023-04-16T11:14:48;19.20;1.00
14924;DHT22;7554;43.600;1.480;2023-04-16T11:17:16;19.10;1.00
14924;DHT22;7554;43.600;1.480;2023-04-16T11:19:44;18.70;1.00
14924;DHT22;7554;43.600;1.480;2023-04-16T11:22:12;18.50;1.00
14924;DHT22;7554;43.600;1.480;2023-04-16T11:24:42;19.20;1.00
14924;DHT22;7554;43.600;1.480;2023-04-16T11:27:13;19.40;1.00
14924;DHT22;7554;43.600;1.480;2023-04-16T11:29:41;19.70;1.00
14924;DHT22;7554;43.600;1.480;2023-04-16T11:32:08;19.30;1.00
14924;DHT22;7554;43.600;1.480;2023-04-16T11:34:43;19.20;1.00
14924;DHT22;7554;43.600;1.480;2023-04-16T11:37:11;18.90;1.00
14924;DHT22;7554;43.600;1.480;2023-04-16T11:39:48;18.50;1.00
14924;DHT22;7554;43.600;1.480;2023-04-16T11:42:21;18.80;1.00
14924;DHT22;7554;43.600;1.480;2023-04-16T11:44:52;19.00;1.00
14924;DHT22;7554;43.600;1.480;2023-04-16T11:47:21;18.70;1.00
14924;DHT22;7554;43.600;1.480;2023-04-16T11:49:48;18.40;1.00
14924;DHT22;7554;43.600;1.480;2023-04-16T11:52:24;18.40;1.00
14924;DHT22;7554;43.600;1.480;2023-04-16T11:54:53;18.60;1.00
14924;DHT22;7554;43.600;1.480;2023-04-16T11:57:26;18.50;1.00
14924;DHT22;7554;43.600;1.480;2023-04-16T11:59:54;18.40;1.00
14924;DHT22;7554;43.600;1.480;2023-04-16T12:02:35;17.90;1.00
14924;DHT22;7554;43.600;1.480;2023-04-16T12:05:03;17.50;1.00
14924;DHT22;7554;43.600;1.480;2023-04-16T12:07:30;17.80;1.00
14924;DHT22;7554;43.600;1.480;2023-04-16T12:10:07;18.10;1.00
14924;DHT22;7554;43.600;1.480;2023-04-16T12:12:36;18.70;1.00
14924;DHT22;7554;43.600;1.480;2023-04-16T12:15:04;18.80;1.00
14924;DHT22;7554;43.600;1.480;2023-04-16T12:17:32;18.80;1.00
14924;DHT22;7554;43.600;1.480;2023-04-16T12:20:00;18.90;1.00
14924;DHT22;7554;43.600;1.480;2023-04-16T12:22:29;18.90;1.00
14924;DHT22;7554;43.600;1.480;2023-04-16T12:25:01;18.70;1.00
14924;DHT22;7554;43.600;1.480;2023-04-16T12:27:43;18.70;1.00
14924;DHT22;7554;43.600;1.480;2023-04-16T12:30:16;18.90;1.00
14924;DHT22;7554;43.600;1.480;2023-04-16T12:32:46;18.90;1.00
14924;DHT22;7554;43.600;1.480;2023-04-16T12:35:20;18.80;1.00
14924;DHT22;7554;43.600;1.480;2023-04-16T12:37:54;18.50;1.00
14924;DHT22;7554;43.600;1.480;2023-04-16T12:40:22;18.30;1.00
14924;DHT22;7554;43.600;1.480;2023-04-16T12:42:51;18.40;1.00
14924;DHT22;7554;43.600;1.480;2023-04-16T12:45:18;18.10;1.00
14924;DHT22;7554;43.600;1.480;2023-04-16T12:47:45;18.30;1.00
14924;DHT22;7554;43.600;1.480;2023-04-16T12:50:13;18.30;1.00
14924;DHT22;7554;43.600;1.480;2023-04-16T12:52:40;18.90;1.00
14924;DHT22;7554;43.600;1.480;2023-04-16T12:55:08;18.70;1.00
14924;DHT22;7554;43.600;1.480;2023-04-16T12:57:36;18.20;1.00
14924;DHT22;7554;43.600;1.480;2023-04-16T13:00:06;18.10;1.00
14924;DHT22;7554;43.600;1.480;2023-04-16T13:02:35;17.90;1.00
14924;DHT22;7554;43.600;1.480;2023-04-16T13:05:02;18.00;1.00
14924;DHT22;7554;43.600;1.480;2023-04-16T13:07:30;18.10;1.00
14924;DHT22;7554;43.600;1.480;2023-04-16T13:09:59;18.20;1.00
14924;DHT22;7554;43.600;1.480;2023-04-16T13:12:26;18.50;1.00
14924;DHT22;7554;43.600;1.480;2023-04-16T13:14:54;18.50;1.00
14924;DHT22;7554;43.600;1.480;2023-04-16T13:17:23;18.30;1.00
14924;DHT22;7554;43.600;1.480;2023-04-16T13:19:51;18.40;1.00
14924;DHT22;7554;43.600;1.480;2023-04-16T13:22:18;18.60;1.00
14924;DHT22;7554;43.600;1.480;2023-04-16T13:24:45;18.60;1.00
14924;DHT22;7554;43.600;1.480;2023-04-16T13:27:15;18.60;1.00
14924;DHT22;7554;43.600;1.480;2023-04-16T13:29:43;18.10;1.00
14924;DHT22;7554;43.600;1.480;2023-04-16T13:32:10;17.80;1.00
14924;DHT22;7554;43.600;1.480;2023-04-16T13:34:41;17.90;1.00
14924;DHT22;7554;43.600;1.480;2023-04-16T13:37:08;18.20;1.00
14924;DHT22;7554;43.600;1.480;2023-04-16T13:39:35;18.00;1.00
14924;DHT22;7554;43.600;1.480;2023-04-16T13:42:03;18.00;1.00
14924;DHT22;7554;43.600;1.480;2023-04-16T13:44:30;18.10;1.00
14924;DHT22;7554;43.600;1.480;2023-04-16T13:46:58;18.30;1.00
14924;DHT22;7554;43.600;1.480;2023-04-16T13:49:25;18.10;1.00
14924;DHT22;7554;43.600;1.480;2023-04-16T13:51:54;18.00;1.00
14924;DHT22;7554;43.600;1.480;2023-04-16T13:54:21;18.20;1.00
14924;DHT22;7554;43.600;1.480;2023-04-16T13:56:49;18.50;1.00
14924;DHT22;7554;43.600;1.480;2023-04-16T13:59:16;18.30;1.00
14924;DHT22;7554;43.600;1.480;2023-04-16T14:01:44;18.20;1.00
14924;DHT22;7554;43.600;1.480;2023-04-16T14:04:12;18.10;1.00
14924;DHT22;7554;43.600;1.480;2023-04-16T14:06:40;17.90;1.00
14924;DHT22;7554;43.600;1.480;2023-04-16T14:09:08;17.80;1.00
14924;DHT22;7554;43.600;1.480;2023-04-16T14:11:36;17.80;1.00
14924;DHT22;7554;43.600;1.480;2023-04-16T14:14:04;17.60;1.00
14924;DHT22;7554;43.600;1.480;2023-04-16T14:16:31;17.70;1.00
14924;DHT22;7554;43.600;1.480;2023-04-16T14:18:58;17.50;1.00
14924;DHT22;7554;43.600;1.480;2023-04-16T14:21:26;17.40;1.00
14924;DHT22;7554;43.600;1.480;2023-04-16T14:23:53;17.60;1.00
14924;DHT22;7554;43.600;1.480;2023-04-16T14:26:22;17.70;1.00
14924;DHT22;7554;43.600;1.480;2023-04-16T14:28:50;17.50;1.00
14924;DHT22;7554;43.600;1.480;2023-04-16T14:31:17;17.40;1.00
14924;DHT22;7554;43.600;1.480;2023-04-16T14:33:44;17.50;1.00
14924;DHT22;7554;43.600;1.480;2023-04-16T14:36:12;17.80;1.00
14924;DHT22;7554;43.600;1.480;2023-04-16T14:38:39;18.10;1.00
14924;DHT22;7554;43.600;1.480;2023-04-16T14:41:08;17.90;1.00
14924;DHT22;7554;43.600;1.480;2023-04-16T14:43:36;17.80;1.00
14924;DHT22;7554;43.600;1.480;2023-04-16T14:46:04;17.80;1.00
14924;DHT22;7554;43.600;1.480;2023-04-16T14:48:32;17.80;1.00
14924;DHT22;7554;43.600;1.480;2023-04-16T14:50:59;17.80;1.00
14924;DHT22;7554;43.600;1.480;2023-04-16T14:53:27;17.80;1.00
14924;DHT22;7554;43.600;1.480;2023-04-16T14:55:54;17.70;1.00
14924;DHT22;7554;43.600;1.480;2023-04-16T14:58:24;17.80;1.00
14924;DHT22;7554;43.600;1.480;2023-04-16T15:00:53;18.00;1.00
14924;DHT22;7554;43.600;1.480;2023-04-16T15:03:20;17.90;1.00
14924;DHT22;7554;43.600;1.480;2023-04-16T15:05:48;17.80;1.00
14924;DHT22;7554;43.600;1.480;2023-04-16T15:08:19;17.70;1.00
14924;DHT22;7554;43.600;1.480;2023-04-16T15:10:47;17.70;1.00
14924;DHT22;7554;43.600;1.480;2023-04-16T15:13:14;17.70;1.00
14924;DHT22;7554;43.600;1.480;2023-04-16T15:15:42;17.80;1.00
14924;DHT22;7554;43.600;1.480;2023-04-16T15:18:11;17.90;1.00
14924;DHT22;7554;43.600;1.480;2023-04-16T15:20:38;17.70;1.00
14924;DHT22;7554;43.600;1.480;2023-04-16T15:23:06;17.90;1.00
14924;DHT22;7554;43.600;1.480;2023-04-16T15:25:33;17.90;1.00
14924;DHT22;7554;43.600;1.480;2023-04-16T15:28:00;18.00;1.00
14924;DHT22;7554;43.600;1.480;2023-04-16T15:30:29;18.00;1.00
14924;DHT22;7554;43.600;1.480;2023-04-16T15:32:57;18.30;1.00
14924;DHT22;7554;43.600;1.480;2023-04-16T15:35:25;18.20;1.00
14924;DHT22;7554;43.600;1.480;2023-04-16T15:37:53;17.80;1.00
14924;DHT22;7554;43.600;1.480;2023-04-16T15:40:20;17.60;1.00
14924;DHT22;7554;43.600;1.480;2023-04-16T15:42:47;17.60;1.00
14924;DHT22;7554;43.600;1.480;2023-04-16T15:45:15;17.60;1.00
14924;DHT22;7554;43.600;1.480;2023-04-16T15:47:42;17.60;1.00
14924;DHT22;7554;43.600;1.480;2023-04-16T15:50:12;17.50;1.00
14924;DHT22;7554;43.600;1.480;2023-04-16T15:52:41;17.40;1.00
14924;DHT22;7554;43.600;1.480;2023-04-16T15:55:09;17.40;1.00
14924;DHT22;7554;43.600;1.480;2023-04-16T15:57:36;17.30;1.00
14924;DHT22;7554;43.600;1.480;2023-04-16T16:00:04;17.20;1.00
14924;DHT22;7554;43.600;1.480;2023-04-16T16:02:38;17.20;1.00
14924;DHT22;7554;43.600;1.480;2023-04-16T16:05:07;17.20;1.00
14924;DHT22;7554;43.600;1.480;2023-04-16T16:07:35;17.20;1.00
14924;DHT22;7554;43.600;1.480;2023-04-16T16:10:04;17.30;1.00
14924;DHT22;7554;43.600;1.480;2023-04-16T16:12:32;17.30;1.00
14924;DHT22;7554;43.600;1.480;2023-04-16T16:14:59;17.20;1.00